sensor_id;sensor_type;location;lat;lon;timestamp;P1;durP1;ratioP1;P2;durP2;ratioP2
357;SDS011;167;47.558;7.602;2023-11-19T00:02:07;3.53;;;3.33;;
357;SDS011;167;47.558;7.602;2023-11-19T00:04:36;4.80;;;4.47;;
357;SDS011;167;47.558;7.602;2023-11-19T00:07:04;3.97;;;3.67;;
357;SDS011;167;47.558;7.602;2023-11-19T00:09:31;4.30;;;4.10;;
357;SDS011;167;47.558;7.602;2023-11-19T00:11:57;3.93;;;3.63;;
357;SDS011;167;47.558;7.602;2023-11-19T00:14:25;4.40;;;4.10;;
357;SDS011;167;47.558;7.602;2023-11-19T00:16:51;3.73;;;3.53;;
357;SDS011;167;47.558;7.602;2023-11-19T00:19:17;4.30;;;4.00;;
357;SDS011;167;47.558;7.602;2023-11-19T00:21:43;4.40;;;4.10;;
357;SDS011;167;47.558;7.602;2023-11-19T00:24:09;4.23;;;4.00;;
357;SDS011;167;47.558;7.602;2023-11-19T00:26:36;4.70;;;4.37;;
357;SDS011;167;47.558;7.602;2023-11-19T00:29:02;5.30;;;4.90;;
357;SDS011;167;47.558;7.602;2023-11-19T00:31:28;4.33;;;4.03;;
357;SDS011;167;47.558;7.602;2023-11-19T00:33:54;5.57;;;5.13;;
357;SDS011;167;47.558;7.602;2023-11-19T00:36:20;5.33;;;4.93;;
357;SDS011;167;47.558;7.602;2023-11-19T00:38:46;5.10;;;4.70;;
357;SDS011;167;47.558;7.602;2023-11-19T00:41:12;6.93;;;6.37;;
357;SDS011;167;47.558;7.602;2023-11-19T00:43:40;6.57;;;6.07;;
357;SDS011;167;47.558;7.602;2023-11-19T00:46:07;7.77;;;7.17;;
357;SDS011;167;47.558;7.602;2023-11-19T00:48:33;7.60;;;6.97;;
357;SDS011;167;47.558;7.602;2023-11-19T00:50:59;8.10;;;7.50;;
357;SDS011;167;47.558;7.602;2023-11-19T00:53:24;8.20;;;7.60;;
357;SDS011;167;47.558;7.602;2023-11-19T00:55:50;7.33;;;6.73;;
357;SDS011;167;47.558;7.602;2023-11-19T00:58:16;7.50;;;6.90;;
357;SDS011;167;47.558;7.602;2023-11-19T01:00:43;7.70;;;7.00;;
357;SDS011;167;47.558;7.602;2023-11-19T01:03:09;6.30;;;5.70;;
357;SDS011;167;47.558;7.602;2023-11-19T01:05:36;6.73;;;6.10;;
357;SDS011;167;47.558;7.602;2023-11-19T01:08:02;6.30;;;5.80;;
357;SDS011;167;47.558;7.602;2023-11-19T01:10:29;6.97;;;6.40;;
357;SDS011;167;47.558;7.602;2023-11-19T01:12:55;7.77;;;7.07;;
357;SDS011;167;47.558;7.602;2023-11-19T01:15:22;7.83;;;7.13;;
357;SDS011;167;47.558;7.602;2023-11-19T01:17:48;7.03;;;6.33;;
357;SDS011;167;47.558;7.602;2023-11-19T01:20:14;7.63;;;6.77;;
357;SDS011;167;47.558;7.602;2023-11-19T01:22:40;7.30;;;6.77;;
357;SDS011;167;47.558;7.602;2023-11-19T01:25:06;6.90;;;6.40;;
357;SDS011;167;47.558;7.602;2023-11-19T01:27:33;7.93;;;7.23;;
357;SDS011;167;47.558;7.602;2023-11-19T01:30:00;7.50;;;7.00;;
357;SDS011;167;47.558;7.602;2023-11-19T01:32:28;7.17;;;6.57;;
357;SDS011;167;47.558;7.602;2023-11-19T01:34:54;7.80;;;7.20;;
357;SDS011;167;47.558;7.602;2023-11-19T01:37:20;7.23;;;6.80;;
357;SDS011;167;47.558;7.602;2023-11-19T01:39:45;6.43;;;5.93;;
357;SDS011;167;47.558;7.602;2023-11-19T01:42:11;7.30;;;6.70;;
357;SDS011;167;47.558;7.602;2023-11-19T01:44:38;7.30;;;6.80;;
357;SDS011;167;47.558;7.602;2023-11-19T01:47:04;7.20;;;6.60;;
357;SDS011;167;47.558;7.602;2023-11-19T01:49:30;7.43;;;6.83;;
357;SDS011;167;47.558;7.602;2023-11-19T01:51:57;6.47;;;5.97;;
357;SDS011;167;47.558;7.602;2023-11-19T01:54:24;6.20;;;5.70;;
357;SDS011;167;47.558;7.602;2023-11-19T01:56:50;6.53;;;6.10;;
357;SDS011;167;47.558;7.602;2023-11-19T01:59:18;5.53;;;5.13;;
357;SDS011;167;47.558;7.602;2023-11-19T02:01:45;6.80;;;6.30;;
357;SDS011;167;47.558;7.602;2023-11-19T02:04:11;6.13;;;5.63;;
357;SDS011;167;47.558;7.602;2023-11-19T02:06:40;6.53;;;6.00;;
357;SDS011;167;47.558;7.602;2023-11-19T02:09:06;6.67;;;6.07;;
357;SDS011;167;47.558;7.602;2023-11-19T02:11:33;6.17;;;5.77;;
357;SDS011;167;47.558;7.602;2023-11-19T02:14:00;5.73;;;5.33;;
357;SDS011;167;47.558;7.602;2023-11-19T02:16:26;6.20;;;5.73;;
357;SDS011;167;47.558;7.602;2023-11-19T02:18:52;6.47;;;6.07;;
357;SDS011;167;47.558;7.602;2023-11-19T02:21:18;6.57;;;6.07;;
357;SDS011;167;47.558;7.602;2023-11-19T02:23:45;5.73;;;5.33;;
357;SDS011;167;47.558;7.602;2023-11-19T02:28:49;6.20;;;5.70;;
357;SDS011;167;47.558;7.602;2023-11-19T02:31:15;6.27;;;5.87;;
357;SDS011;167;47.558;7.602;2023-11-19T02:33:41;7.40;;;6.80;;
357;SDS011;167;47.558;7.602;2023-11-19T02:36:07;5.80;;;5.40;;
357;SDS011;167;47.558;7.602;2023-11-19T02:38:34;6.80;;;6.30;;
357;SDS011;167;47.558;7.602;2023-11-19T02:41:02;7.20;;;6.70;;
357;SDS011;167;47.558;7.602;2023-11-19T02:43:31;6.67;;;6.07;;
357;SDS011;167;47.558;7.602;2023-11-19T02:45:58;6.17;;;5.77;;
357;SDS011;167;47.558;7.602;2023-11-19T02:48:24;6.90;;;6.30;;
357;SDS011;167;47.558;7.602;2023-11-19T02:50:50;7.03;;;6.33;;
357;SDS011;167;47.558;7.602;2023-11-19T02:53:17;7.90;;;7.20;;
357;SDS011;167;47.558;7.602;2023-11-19T02:55:46;7.93;;;7.33;;
357;SDS011;167;47.558;7.602;2023-11-19T02:58:15;9.13;;;8.40;;
357;SDS011;167;47.558;7.602;2023-11-19T03:00:49;9.00;;;8.20;;
357;SDS011;167;47.558;7.602;2023-11-19T03:03:27;8.43;;;7.60;;
357;SDS011;167;47.558;7.602;2023-11-19T03:05:56;9.33;;;8.53;;
357;SDS011;167;47.558;7.602;2023-11-19T03:08:22;8.73;;;7.93;;
357;SDS011;167;47.558;7.602;2023-11-19T03:10:48;7.03;;;6.53;;
357;SDS011;167;47.558;7.602;2023-11-19T03:13:14;8.33;;;7.63;;
357;SDS011;167;47.558;7.602;2023-11-19T03:15:40;8.20;;;7.60;;
357;SDS011;167;47.558;7.602;2023-11-19T03:18:06;7.83;;;7.20;;
357;SDS011;167;47.558;7.602;2023-11-19T03:20:32;7.27;;;6.70;;
357;SDS011;167;47.558;7.602;2023-11-19T03:22:58;8.20;;;7.63;;
357;SDS011;167;47.558;7.602;2023-11-19T03:25:26;7.17;;;6.60;;
357;SDS011;167;47.558;7.602;2023-11-19T03:27:58;7.20;;;6.50;;
357;SDS011;167;47.558;7.602;2023-11-19T03:30:24;7.47;;;6.87;;
357;SDS011;167;47.558;7.602;2023-11-19T03:32:50;7.73;;;7.13;;
357;SDS011;167;47.558;7.602;2023-11-19T03:35:16;7.50;;;6.90;;
357;SDS011;167;47.558;7.602;2023-11-19T03:37:42;8.20;;;7.53;;
357;SDS011;167;47.558;7.602;2023-11-19T03:40:08;8.03;;;7.33;;
357;SDS011;167;47.558;7.602;2023-11-19T03:42:35;9.77;;;7.13;;
357;SDS011;167;47.558;7.602;2023-11-19T03:45:01;7.33;;;6.73;;
357;SDS011;167;47.558;7.602;2023-11-19T03:47:28;7.00;;;6.50;;
357;SDS011;167;47.558;7.602;2023-11-19T03:49:54;7.23;;;6.70;;
357;SDS011;167;47.558;7.602;2023-11-19T03:52:21;7.37;;;6.77;;
357;SDS011;167;47.558;7.602;2023-11-19T03:54:47;7.50;;;6.90;;
357;SDS011;167;47.558;7.602;2023-11-19T03:57:13;7.60;;;7.00;;
357;SDS011;167;47.558;7.602;2023-11-19T03:59:40;6.90;;;6.33;;
357;SDS011;167;47.558;7.602;2023-11-19T04:02:06;7.70;;;7.20;;
357;SDS011;167;47.558;7.602;2023-11-19T04:04:32;8.93;;;8.13;;
357;SDS011;167;47.558;7.602;2023-11-19T04:06:59;7.60;;;7.00;;
357;SDS011;167;47.558;7.602;2023-11-19T04:09:25;8.30;;;7.60;;
357;SDS011;167;47.558;7.602;2023-11-19T04:11:51;7.90;;;7.27;;
357;SDS011;167;47.558;7.602;2023-11-19T04:14:17;7.27;;;6.73;;
357;SDS011;167;47.558;7.602;2023-11-19T04:16:44;7.77;;;7.20;;
357;SDS011;167;47.558;7.602;2023-11-19T04:19:10;7.43;;;6.90;;
357;SDS011;167;47.558;7.602;2023-11-19T04:21:36;7.43;;;6.80;;
357;SDS011;167;47.558;7.602;2023-11-19T04:24:02;7.00;;;6.50;;
357;SDS011;167;47.558;7.602;2023-11-19T04:26:28;7.87;;;7.20;;
357;SDS011;167;47.558;7.602;2023-11-19T04:28:56;6.63;;;6.13;;
357;SDS011;167;47.558;7.602;2023-11-19T04:31:22;7.30;;;6.70;;
357;SDS011;167;47.558;7.602;2023-11-19T04:33:48;7.40;;;6.80;;
357;SDS011;167;47.558;7.602;2023-11-19T04:36:18;8.40;;;7.77;;
357;SDS011;167;47.558;7.602;2023-11-19T04:38:45;8.43;;;7.70;;
357;SDS011;167;47.558;7.602;2023-11-19T04:41:11;10.10;;;9.27;;
357;SDS011;167;47.558;7.602;2023-11-19T04:43:37;10.07;;;9.17;;
357;SDS011;167;47.558;7.602;2023-11-19T04:46:06;8.83;;;8.13;;
357;SDS011;167;47.558;7.602;2023-11-19T04:48:32;10.13;;;9.33;;
357;SDS011;167;47.558;7.602;2023-11-19T04:50:57;8.20;;;7.53;;
357;SDS011;167;47.558;7.602;2023-11-19T04:53:23;9.57;;;8.77;;
357;SDS011;167;47.558;7.602;2023-11-19T04:55:49;9.00;;;8.30;;
357;SDS011;167;47.558;7.602;2023-11-19T04:58:15;9.13;;;8.43;;
357;SDS011;167;47.558;7.602;2023-11-19T05:00:41;9.90;;;9.10;;
357;SDS011;167;47.558;7.602;2023-11-19T05:03:07;11.33;;;10.30;;
357;SDS011;167;47.558;7.602;2023-11-19T05:05:33;9.53;;;8.73;;
357;SDS011;167;47.558;7.602;2023-11-19T05:07:59;10.80;;;9.83;;
357;SDS011;167;47.558;7.602;2023-11-19T05:10:26;9.80;;;9.07;;
357;SDS011;167;47.558;7.602;2023-11-19T05:12:52;10.83;;;10.03;;
357;SDS011;167;47.558;7.602;2023-11-19T05:15:18;9.47;;;8.73;;
357;SDS011;167;47.558;7.602;2023-11-19T05:17:44;9.90;;;9.10;;
357;SDS011;167;47.558;7.602;2023-11-19T05:20:10;8.40;;;7.70;;
357;SDS011;167;47.558;7.602;2023-11-19T05:22:41;9.17;;;8.47;;
357;SDS011;167;47.558;7.602;2023-11-19T05:25:08;8.57;;;7.97;;
357;SDS011;167;47.558;7.602;2023-11-19T05:27:36;7.90;;;7.30;;
357;SDS011;167;47.558;7.602;2023-11-19T05:30:02;8.90;;;8.20;;
357;SDS011;167;47.558;7.602;2023-11-19T05:32:28;8.07;;;7.47;;
357;SDS011;167;47.558;7.602;2023-11-19T05:34:54;8.43;;;7.73;;
357;SDS011;167;47.558;7.602;2023-11-19T05:37:20;8.70;;;7.90;;
357;SDS011;167;47.558;7.602;2023-11-19T05:39:46;8.00;;;7.50;;
357;SDS011;167;47.558;7.602;2023-11-19T05:42:12;7.60;;;7.00;;
357;SDS011;167;47.558;7.602;2023-11-19T05:44:38;8.40;;;7.60;;
357;SDS011;167;47.558;7.602;2023-11-19T05:47:04;7.90;;;7.30;;
357;SDS011;167;47.558;7.602;2023-11-19T05:49:30;11.03;;;7.20;;
357;SDS011;167;47.558;7.602;2023-11-19T05:51:56;9.23;;;8.33;;
357;SDS011;167;47.558;7.602;2023-11-19T05:54:22;7.43;;;6.83;;
357;SDS011;167;47.558;7.602;2023-11-19T05:56:48;8.10;;;7.40;;
357;SDS011;167;47.558;7.602;2023-11-19T05:59:14;8.47;;;7.77;;
357;SDS011;167;47.558;7.602;2023-11-19T06:01:43;8.67;;;7.97;;
357;SDS011;167;47.558;7.602;2023-11-19T06:04:09;7.13;;;6.53;;
357;SDS011;167;47.558;7.602;2023-11-19T06:06:35;7.70;;;7.13;;
357;SDS011;167;47.558;7.602;2023-11-19T06:09:01;8.33;;;7.70;;
357;SDS011;167;47.558;7.602;2023-11-19T06:11:28;8.83;;;7.60;;
357;SDS011;167;47.558;7.602;2023-11-19T06:13:54;8.73;;;8.03;;
357;SDS011;167;47.558;7.602;2023-11-19T06:16:21;7.87;;;7.37;;
357;SDS011;167;47.558;7.602;2023-11-19T06:18:47;8.70;;;8.00;;
357;SDS011;167;47.558;7.602;2023-11-19T06:21:13;8.80;;;8.00;;
357;SDS011;167;47.558;7.602;2023-11-19T06:23:39;9.00;;;8.10;;
357;SDS011;167;47.558;7.602;2023-11-19T06:26:05;8.90;;;8.10;;
357;SDS011;167;47.558;7.602;2023-11-19T06:28:31;9.17;;;8.27;;
357;SDS011;167;47.558;7.602;2023-11-19T06:30:57;9.50;;;8.77;;
357;SDS011;167;47.558;7.602;2023-11-19T06:33:26;10.70;;;9.80;;
357;SDS011;167;47.558;7.602;2023-11-19T06:35:52;11.40;;;9.70;;
357;SDS011;167;47.558;7.602;2023-11-19T06:38:19;9.87;;;8.90;;
357;SDS011;167;47.558;7.602;2023-11-19T06:40:45;9.97;;;9.07;;
357;SDS011;167;47.558;7.602;2023-11-19T06:43:11;9.30;;;8.53;;
357;SDS011;167;47.558;7.602;2023-11-19T06:45:37;10.77;;;9.87;;
357;SDS011;167;47.558;7.602;2023-11-19T06:48:03;10.63;;;9.83;;
357;SDS011;167;47.558;7.602;2023-11-19T06:50:29;9.93;;;9.13;;
357;SDS011;167;47.558;7.602;2023-11-19T06:52:55;11.43;;;10.43;;
357;SDS011;167;47.558;7.602;2023-11-19T06:55:22;9.83;;;8.83;;
357;SDS011;167;47.558;7.602;2023-11-19T06:57:48;11.20;;;10.20;;
357;SDS011;167;47.558;7.602;2023-11-19T07:00:14;9.67;;;8.80;;
357;SDS011;167;47.558;7.602;2023-11-19T07:02:40;9.67;;;8.77;;
357;SDS011;167;47.558;7.602;2023-11-19T07:05:06;9.93;;;9.07;;
357;SDS011;167;47.558;7.602;2023-11-19T07:07:33;9.17;;;8.47;;
357;SDS011;167;47.558;7.602;2023-11-19T07:10:00;9.60;;;8.90;;
357;SDS011;167;47.558;7.602;2023-11-19T07:12:27;9.70;;;8.90;;
357;SDS011;167;47.558;7.602;2023-11-19T07:14:53;9.93;;;9.10;;
357;SDS011;167;47.558;7.602;2023-11-19T07:17:20;10.37;;;9.40;;
357;SDS011;167;47.558;7.602;2023-11-19T07:19:46;9.40;;;8.60;;
357;SDS011;167;47.558;7.602;2023-11-19T07:22:12;9.57;;;8.77;;
357;SDS011;167;47.558;7.602;2023-11-19T07:24:39;10.30;;;9.50;;
357;SDS011;167;47.558;7.602;2023-11-19T07:27:05;10.20;;;9.30;;
357;SDS011;167;47.558;7.602;2023-11-19T07:29:31;9.77;;;8.97;;
357;SDS011;167;47.558;7.602;2023-11-19T07:31:57;10.13;;;9.33;;
357;SDS011;167;47.558;7.602;2023-11-19T07:34:24;8.67;;;8.00;;
357;SDS011;167;47.558;7.602;2023-11-19T07:36:50;8.80;;;8.10;;
357;SDS011;167;47.558;7.602;2023-11-19T07:39:16;10.13;;;9.17;;
357;SDS011;167;47.558;7.602;2023-11-19T07:41:42;8.40;;;7.80;;
357;SDS011;167;47.558;7.602;2023-11-19T07:44:08;9.17;;;8.37;;
357;SDS011;167;47.558;7.602;2023-11-19T07:46:34;8.73;;;7.90;;
357;SDS011;167;47.558;7.602;2023-11-19T07:49:00;9.43;;;8.53;;
357;SDS011;167;47.558;7.602;2023-11-19T07:51:27;8.33;;;7.63;;
357;SDS011;167;47.558;7.602;2023-11-19T07:53:53;8.73;;;8.00;;
357;SDS011;167;47.558;7.602;2023-11-19T07:56:19;9.07;;;8.33;;
357;SDS011;167;47.558;7.602;2023-11-19T07:58:45;8.73;;;8.03;;
357;SDS011;167;47.558;7.602;2023-11-19T08:01:11;8.40;;;7.70;;
357;SDS011;167;47.558;7.602;2023-11-19T08:03:38;8.00;;;7.40;;
357;SDS011;167;47.558;7.602;2023-11-19T08:06:04;7.60;;;7.10;;
357;SDS011;167;47.558;7.602;2023-11-19T08:08:31;8.30;;;7.60;;
357;SDS011;167;47.558;7.602;2023-11-19T08:10:59;8.60;;;8.00;;
357;SDS011;167;47.558;7.602;2023-11-19T08:13:25;9.60;;;8.83;;
357;SDS011;167;47.558;7.602;2023-11-19T08:15:52;9.10;;;8.40;;
357;SDS011;167;47.558;7.602;2023-11-19T08:18:18;8.67;;;7.97;;
357;SDS011;167;47.558;7.602;2023-11-19T08:20:44;10.23;;;9.23;;
357;SDS011;167;47.558;7.602;2023-11-19T08:23:10;7.50;;;7.00;;
357;SDS011;167;47.558;7.602;2023-11-19T08:25:36;9.67;;;8.73;;
357;SDS011;167;47.558;7.602;2023-11-19T08:28:02;8.67;;;7.97;;
357;SDS011;167;47.558;7.602;2023-11-19T08:30:29;8.87;;;8.07;;
357;SDS011;167;47.558;7.602;2023-11-19T08:32:55;9.37;;;8.67;;
357;SDS011;167;47.558;7.602;2023-11-19T08:35:21;6.83;;;6.33;;
357;SDS011;167;47.558;7.602;2023-11-19T08:37:48;6.90;;;6.40;;
357;SDS011;167;47.558;7.602;2023-11-19T08:40:14;6.87;;;6.40;;
357;SDS011;167;47.558;7.602;2023-11-19T08:42:40;5.30;;;5.00;;
357;SDS011;167;47.558;7.602;2023-11-19T08:45:07;5.47;;;5.07;;
357;SDS011;167;47.558;7.602;2023-11-19T08:47:35;4.07;;;3.77;;
357;SDS011;167;47.558;7.602;2023-11-19T08:50:01;4.07;;;3.77;;
357;SDS011;167;47.558;7.602;2023-11-19T08:52:28;3.70;;;3.50;;
357;SDS011;167;47.558;7.602;2023-11-19T08:54:54;6.37;;;5.87;;
357;SDS011;167;47.558;7.602;2023-11-19T08:57:21;3.07;;;2.87;;
357;SDS011;167;47.558;7.602;2023-11-19T08:59:47;3.60;;;3.30;;
357;SDS011;167;47.558;7.602;2023-11-19T09:02:12;1.50;;;1.50;;
357;SDS011;167;47.558;7.602;2023-11-19T09:04:38;2.90;;;2.70;;
357;SDS011;167;47.558;7.602;2023-11-19T09:07:05;2.63;;;2.43;;
357;SDS011;167;47.558;7.602;2023-11-19T09:09:34;1.10;;;1.10;;
357;SDS011;167;47.558;7.602;2023-11-19T09:12:01;2.03;;;1.80;;
357;SDS011;167;47.558;7.602;2023-11-19T09:14:28;1.43;;;1.37;;
357;SDS011;167;47.558;7.602;2023-11-19T09:16:54;1.27;;;1.27;;
357;SDS011;167;47.558;7.602;2023-11-19T09:19:21;1.13;;;0.90;;
357;SDS011;167;47.558;7.602;2023-11-19T09:21:46;1.03;;;1.03;;
357;SDS011;167;47.558;7.602;2023-11-19T09:24:14;1.27;;;1.27;;
357;SDS011;167;47.558;7.602;2023-11-19T09:26:40;1.33;;;1.27;;
357;SDS011;167;47.558;7.602;2023-11-19T09:29:07;0.90;;;0.80;;
357;SDS011;167;47.558;7.602;2023-11-19T09:31:32;1.00;;;1.00;;
357;SDS011;167;47.558;7.602;2023-11-19T09:33:59;1.17;;;0.70;;
357;SDS011;167;47.558;7.602;2023-11-19T09:36:25;1.93;;;1.83;;
357;SDS011;167;47.558;7.602;2023-11-19T09:38:51;0.73;;;0.73;;
357;SDS011;167;47.558;7.602;2023-11-19T09:41:17;1.53;;;1.10;;
357;SDS011;167;47.558;7.602;2023-11-19T09:43:44;1.20;;;1.20;;
357;SDS011;167;47.558;7.602;2023-11-19T09:46:11;1.10;;;1.10;;
357;SDS011;167;47.558;7.602;2023-11-19T09:48:38;1.43;;;1.33;;
357;SDS011;167;47.558;7.602;2023-11-19T09:51:08;1.00;;;1.00;;
357;SDS011;167;47.558;7.602;2023-11-19T09:53:34;1.03;;;1.03;;
357;SDS011;167;47.558;7.602;2023-11-19T09:56:01;1.23;;;1.20;;
357;SDS011;167;47.558;7.602;2023-11-19T09:58:28;1.00;;;1.00;;
357;SDS011;167;47.558;7.602;2023-11-19T10:00:55;0.70;;;0.70;;
357;SDS011;167;47.558;7.602;2023-11-19T10:03:23;0.90;;;0.90;;
357;SDS011;167;47.558;7.602;2023-11-19T10:05:49;0.77;;;0.77;;
357;SDS011;167;47.558;7.602;2023-11-19T10:08:15;0.80;;;0.80;;
357;SDS011;167;47.558;7.602;2023-11-19T10:10:42;0.90;;;0.90;;
357;SDS011;167;47.558;7.602;2023-11-19T10:13:08;0.87;;;0.87;;
357;SDS011;167;47.558;7.602;2023-11-19T10:15:37;1.20;;;0.80;;
357;SDS011;167;47.558;7.602;2023-11-19T10:18:03;0.70;;;0.70;;
357;SDS011;167;47.558;7.602;2023-11-19T10:20:35;1.13;;;1.13;;
357;SDS011;167;47.558;7.602;2023-11-19T10:23:01;2.00;;;1.90;;
357;SDS011;167;47.558;7.602;2023-11-19T10:25:27;1.17;;;1.13;;
357;SDS011;167;47.558;7.602;2023-11-19T10:27:54;1.10;;;1.10;;
357;SDS011;167;47.558;7.602;2023-11-19T10:30:21;1.00;;;1.00;;
357;SDS011;167;47.558;7.602;2023-11-19T10:33:02;0.90;;;0.90;;
357;SDS011;167;47.558;7.602;2023-11-19T10:35:28;1.00;;;1.00;;
357;SDS011;167;47.558;7.602;2023-11-19T10:37:54;0.93;;;0.90;;
357;SDS011;167;47.558;7.602;2023-11-19T10:40:21;0.90;;;0.90;;
357;SDS011;167;47.558;7.602;2023-11-19T10:42:47;0.77;;;0.77;;
357;SDS011;167;47.558;7.602;2023-11-19T10:45:22;0.83;;;0.83;;
357;SDS011;167;47.558;7.602;2023-11-19T10:47:49;0.80;;;0.80;;
357;SDS011;167;47.558;7.602;2023-11-19T10:50:15;1.40;;;0.87;;
357;SDS011;167;47.558;7.602;2023-11-19T10:52:41;1.07;;;1.00;;
357;SDS011;167;47.558;7.602;2023-11-19T10:55:09;1.83;;;1.73;;
357;SDS011;167;47.558;7.602;2023-11-19T10:57:39;3.03;;;2.93;;
357;SDS011;167;47.558;7.602;2023-11-19T11:00:09;1.00;;;1.00;;
357;SDS011;167;47.558;7.602;2023-11-19T11:02:38;0.93;;;0.93;;
357;SDS011;167;47.558;7.602;2023-11-19T11:05:07;0.57;;;0.57;;
357;SDS011;167;47.558;7.602;2023-11-19T11:07:33;0.70;;;0.70;;
357;SDS011;167;47.558;7.602;2023-11-19T11:10:00;0.67;;;0.67;;
357;SDS011;167;47.558;7.602;2023-11-19T11:12:28;0.73;;;0.73;;
357;SDS011;167;47.558;7.602;2023-11-19T11:14:54;0.97;;;0.97;;
357;SDS011;167;47.558;7.602;2023-11-19T11:17:21;0.93;;;0.93;;
357;SDS011;167;47.558;7.602;2023-11-19T11:19:50;1.40;;;1.27;;
357;SDS011;167;47.558;7.602;2023-11-19T11:22:16;3.10;;;2.87;;
357;SDS011;167;47.558;7.602;2023-11-19T11:30:00;1.40;;;1.40;;
357;SDS011;167;47.558;7.602;2023-11-19T11:37:31;7.50;;;6.80;;
357;SDS011;167;47.558;7.602;2023-11-19T11:39:58;1.67;;;1.57;;
357;SDS011;167;47.558;7.602;2023-11-19T11:50:08;1.03;;;1.03;;
357;SDS011;167;47.558;7.602;2023-11-19T11:55:23;1.00;;;1.00;;
357;SDS011;167;47.558;7.602;2023-11-19T11:57:49;1.43;;;1.37;;
357;SDS011;167;47.558;7.602;2023-11-19T12:00:29;1.50;;;1.40;;
357;SDS011;167;47.558;7.602;2023-11-19T12:02:59;1.10;;;1.10;;
357;SDS011;167;47.558;7.602;2023-11-19T12:05:26;0.77;;;0.77;;
357;SDS011;167;47.558;7.602;2023-11-19T12:07:56;1.17;;;0.87;;
357;SDS011;167;47.558;7.602;2023-11-19T12:10:25;0.40;;;0.40;;
357;SDS011;167;47.558;7.602;2023-11-19T12:12:58;0.90;;;0.90;;
357;SDS011;167;47.558;7.602;2023-11-19T12:15:24;1.60;;;0.93;;
357;SDS011;167;47.558;7.602;2023-11-19T12:17:53;0.53;;;0.53;;
357;SDS011;167;47.558;7.602;2023-11-19T12:20:23;0.50;;;0.50;;
357;SDS011;167;47.558;7.602;2023-11-19T12:22:49;0.70;;;0.70;;
357;SDS011;167;47.558;7.602;2023-11-19T12:25:16;2.27;;;2.07;;
357;SDS011;167;47.558;7.602;2023-11-19T12:27:46;0.60;;;0.60;;
357;SDS011;167;47.558;7.602;2023-11-19T12:30:12;0.90;;;0.90;;
357;SDS011;167;47.558;7.602;2023-11-19T12:32:38;1.50;;;0.73;;
357;SDS011;167;47.558;7.602;2023-11-19T12:35:05;0.63;;;0.63;;
357;SDS011;167;47.558;7.602;2023-11-19T12:37:31;1.10;;;1.00;;
357;SDS011;167;47.558;7.602;2023-11-19T12:39:57;0.53;;;0.53;;
357;SDS011;167;47.558;7.602;2023-11-19T12:42:38;0.57;;;0.57;;
357;SDS011;167;47.558;7.602;2023-11-19T12:45:05;0.70;;;0.70;;
357;SDS011;167;47.558;7.602;2023-11-19T12:47:31;0.93;;;0.93;;
357;SDS011;167;47.558;7.602;2023-11-19T12:49:57;0.60;;;0.60;;
357;SDS011;167;47.558;7.602;2023-11-19T12:52:23;4.00;;;0.60;;
357;SDS011;167;47.558;7.602;2023-11-19T12:54:49;0.63;;;0.63;;
357;SDS011;167;47.558;7.602;2023-11-19T12:57:16;0.60;;;0.60;;
357;SDS011;167;47.558;7.602;2023-11-19T12:59:53;0.60;;;0.60;;
357;SDS011;167;47.558;7.602;2023-11-19T13:02:20;0.60;;;0.60;;
357;SDS011;167;47.558;7.602;2023-11-19T13:04:46;0.50;;;0.50;;
357;SDS011;167;47.558;7.602;2023-11-19T13:07:12;1.60;;;0.80;;
357;SDS011;167;47.558;7.602;2023-11-19T13:09:38;0.73;;;0.73;;
357;SDS011;167;47.558;7.602;2023-11-19T13:12:14;1.70;;;0.73;;
357;SDS011;167;47.558;7.602;2023-11-19T13:14:40;0.60;;;0.60;;
357;SDS011;167;47.558;7.602;2023-11-19T13:17:14;0.47;;;0.47;;
357;SDS011;167;47.558;7.602;2023-11-19T13:19:40;0.50;;;0.50;;
357;SDS011;167;47.558;7.602;2023-11-19T13:22:06;0.77;;;0.77;;
357;SDS011;167;47.558;7.602;2023-11-19T13:24:32;0.60;;;0.60;;
357;SDS011;167;47.558;7.602;2023-11-19T13:26:58;0.77;;;0.77;;
357;SDS011;167;47.558;7.602;2023-11-19T13:29:24;0.90;;;0.80;;
357;SDS011;167;47.558;7.602;2023-11-19T13:31:50;1.83;;;1.00;;
357;SDS011;167;47.558;7.602;2023-11-19T13:34:16;0.93;;;0.70;;
357;SDS011;167;47.558;7.602;2023-11-19T13:36:41;0.80;;;0.80;;
357;SDS011;167;47.558;7.602;2023-11-19T13:39:07;0.90;;;0.90;;
357;SDS011;167;47.558;7.602;2023-11-19T13:41:33;1.80;;;1.70;;
357;SDS011;167;47.558;7.602;2023-11-19T13:43:59;1.07;;;1.07;;
357;SDS011;167;47.558;7.602;2023-11-19T13:46:26;0.70;;;0.70;;
357;SDS011;167;47.558;7.602;2023-11-19T13:48:52;1.00;;;0.90;;
357;SDS011;167;47.558;7.602;2023-11-19T13:51:17;0.93;;;0.93;;
357;SDS011;167;47.558;7.602;2023-11-19T13:53:44;1.90;;;1.20;;
357;SDS011;167;47.558;7.602;2023-11-19T13:56:10;1.63;;;1.53;;
357;SDS011;167;47.558;7.602;2023-11-19T13:58:36;1.90;;;1.03;;
357;SDS011;167;47.558;7.602;2023-11-19T14:01:02;2.63;;;1.30;;
357;SDS011;167;47.558;7.602;2023-11-19T14:03:28;1.30;;;1.20;;
357;SDS011;167;47.558;7.602;2023-11-19T14:05:54;2.20;;;1.93;;
357;SDS011;167;47.558;7.602;2023-11-19T14:08:20;0.80;;;0.80;;
357;SDS011;167;47.558;7.602;2023-11-19T14:10:46;0.70;;;0.63;;
357;SDS011;167;47.558;7.602;2023-11-19T14:13:12;1.00;;;1.00;;
357;SDS011;167;47.558;7.602;2023-11-19T14:15:40;1.50;;;1.50;;
357;SDS011;167;47.558;7.602;2023-11-19T14:18:07;2.80;;;1.07;;
357;SDS011;167;47.558;7.602;2023-11-19T14:20:33;1.63;;;1.53;;
357;SDS011;167;47.558;7.602;2023-11-19T14:23:00;1.63;;;1.53;;
357;SDS011;167;47.558;7.602;2023-11-19T14:25:27;1.33;;;1.23;;
357;SDS011;167;47.558;7.602;2023-11-19T14:27:53;1.30;;;1.20;;
357;SDS011;167;47.558;7.602;2023-11-19T14:30:19;1.90;;;1.67;;
357;SDS011;167;47.558;7.602;2023-11-19T14:32:45;1.47;;;1.47;;
357;SDS011;167;47.558;7.602;2023-11-19T14:35:12;1.97;;;1.43;;
357;SDS011;167;47.558;7.602;2023-11-19T14:37:38;1.83;;;1.30;;
357;SDS011;167;47.558;7.602;2023-11-19T14:40:05;1.57;;;1.47;;
357;SDS011;167;47.558;7.602;2023-11-19T14:42:32;1.77;;;1.60;;
357;SDS011;167;47.558;7.602;2023-11-19T14:44:58;1.90;;;1.23;;
357;SDS011;167;47.558;7.602;2023-11-19T14:47:24;2.40;;;1.53;;
357;SDS011;167;47.558;7.602;2023-11-19T14:49:50;2.07;;;1.90;;
357;SDS011;167;47.558;7.602;2023-11-19T14:52:16;1.40;;;1.30;;
357;SDS011;167;47.558;7.602;2023-11-19T14:54:42;1.90;;;1.70;;
357;SDS011;167;47.558;7.602;2023-11-19T14:57:08;1.17;;;1.10;;
357;SDS011;167;47.558;7.602;2023-11-19T14:59:34;1.63;;;1.60;;
357;SDS011;167;47.558;7.602;2023-11-19T15:02:00;1.90;;;1.50;;
357;SDS011;167;47.558;7.602;2023-11-19T15:04:27;1.10;;;1.00;;
357;SDS011;167;47.558;7.602;2023-11-19T15:06:56;1.53;;;1.43;;
357;SDS011;167;47.558;7.602;2023-11-19T15:09:22;1.80;;;1.47;;
357;SDS011;167;47.558;7.602;2023-11-19T15:11:48;2.17;;;1.97;;
357;SDS011;167;47.558;7.602;2023-11-19T15:14:14;1.83;;;1.40;;
357;SDS011;167;47.558;7.602;2023-11-19T15:16:42;1.73;;;1.63;;
357;SDS011;167;47.558;7.602;2023-11-19T15:19:07;1.90;;;1.70;;
357;SDS011;167;47.558;7.602;2023-11-19T15:21:34;2.80;;;1.60;;
357;SDS011;167;47.558;7.602;2023-11-19T15:24:00;2.43;;;2.07;;
357;SDS011;167;47.558;7.602;2023-11-19T15:26:29;1.57;;;1.47;;
357;SDS011;167;47.558;7.602;2023-11-19T15:28:55;2.27;;;2.17;;
357;SDS011;167;47.558;7.602;2023-11-19T15:31:23;2.23;;;1.70;;
357;SDS011;167;47.558;7.602;2023-11-19T15:33:49;2.33;;;2.23;;
357;SDS011;167;47.558;7.602;2023-11-19T15:36:16;3.43;;;2.50;;
357;SDS011;167;47.558;7.602;2023-11-19T15:38:42;2.10;;;2.00;;
357;SDS011;167;47.558;7.602;2023-11-19T15:41:08;1.93;;;1.83;;
357;SDS011;167;47.558;7.602;2023-11-19T15:43:34;0.90;;;0.90;;
357;SDS011;167;47.558;7.602;2023-11-19T15:46:01;1.43;;;1.33;;
357;SDS011;167;47.558;7.602;2023-11-19T15:48:27;1.53;;;1.43;;
357;SDS011;167;47.558;7.602;2023-11-19T15:50:52;5.70;;;1.50;;
357;SDS011;167;47.558;7.602;2023-11-19T15:53:18;2.20;;;1.83;;
357;SDS011;167;47.558;7.602;2023-11-19T15:55:44;3.23;;;1.50;;
357;SDS011;167;47.558;7.602;2023-11-19T15:58:10;0.87;;;0.87;;
357;SDS011;167;47.558;7.602;2023-11-19T16:00:36;1.70;;;1.10;;
357;SDS011;167;47.558;7.602;2023-11-19T16:03:02;0.80;;;0.80;;
357;SDS011;167;47.558;7.602;2023-11-19T16:05:28;2.07;;;1.30;;